createdAt,value
2023-04-11T00:04:50.885Z,8.36
2023-04-11T00:07:32.126Z,8.34
2023-04-11T00:08:49.934Z,8.33
2023-04-11T00:10:21.831Z,8.32
2023-04-11T00:11:54.512Z,8.30
2023-04-11T00:13:27.189Z,8.28
2023-04-11T00:14:52.274Z,8.27
2023-04-11T00:16:07.090Z,8.26
2023-04-11T00:17:22.610Z,8.26
2023-04-11T00:18:55.606Z,8.24
2023-04-11T00:20:08.119Z,8.22
2023-04-11T00:21:16.022Z,8.20
2023-04-11T00:22:48.692Z,8.20
2023-04-11T00:24:13.922Z,8.19
2023-04-11T00:25:44.769Z,8.17
2023-04-11T00:27:10.500Z,8.15
2023-04-11T00:28:35.325Z,8.13
2023-04-11T00:29:56.554Z,8.11
2023-04-11T00:31:23.105Z,8.10
2023-04-11T00:32:56.014Z,8.08
2023-04-11T00:34:17.576Z,8.06
2023-04-11T00:35:50.186Z,8.04
2023-04-11T00:37:15.910Z,8.01
2023-04-11T00:38:42.129Z,7.98
2023-04-11T00:40:15.805Z,7.95
2023-04-11T00:41:23.733Z,7.93
2023-04-11T00:42:39.228Z,7.92
2023-04-11T00:44:10.577Z,7.90
2023-04-11T00:45:35.985Z,7.87
2023-04-11T00:47:08.541Z,7.86
2023-04-11T00:48:41.154Z,7.85
2023-04-11T00:49:55.260Z,7.83
2023-04-11T00:51:26.516Z,7.82
2023-04-11T00:52:52.828Z,7.80
2023-04-11T00:54:02.827Z,7.79
2023-04-11T00:55:35.363Z,7.78
2023-04-11T00:56:57.858Z,7.77
2023-04-11T00:58:08.415Z,7.77
2023-04-11T00:59:32.158Z,7.77
2023-04-11T01:00:51.906Z,7.78
2023-04-11T01:02:07.018Z,7.79
2023-04-11T01:03:38.492Z,7.80
2023-04-11T01:05:11.448Z,7.79
2023-04-11T01:06:17.492Z,7.81
2023-04-11T01:07:49.881Z,7.82
2023-04-11T01:09:06.106Z,7.83
2023-04-11T01:10:22.316Z,7.84
2023-04-11T01:11:54.836Z,7.84
2023-04-11T01:13:20.966Z,7.84
2023-04-11T01:14:38.584Z,7.85
2023-04-11T01:15:55.988Z,7.85
2023-04-11T01:17:28.415Z,7.86
2023-04-11T01:19:00.937Z,7.87
2023-04-11T01:20:15.240Z,7.89
2023-04-11T01:21:41.361Z,7.91
2023-04-11T01:23:14.189Z,7.93
2023-04-11T01:24:26.403Z,7.95
2023-04-11T01:25:51.761Z,7.97
2023-04-11T01:27:23.100Z,7.99
2023-04-11T01:28:56.442Z,8.02
2023-04-11T01:30:05.162Z,8.03
2023-04-11T01:31:19.007Z,8.05
2023-04-11T01:32:44.437Z,8.07
2023-04-11T01:33:57.180Z,8.07
2023-04-11T01:34:54.579Z,8.09
2023-04-11T01:36:15.640Z,8.09
2023-04-11T01:37:36.817Z,8.11
2023-04-11T01:39:01.780Z,8.13
2023-04-11T01:40:35.345Z,8.14
2023-04-11T01:47:51.049Z,8.18
2023-04-11T01:51:03.484Z,8.18
2023-04-11T01:52:36.051Z,8.19
2023-04-11T01:53:51.106Z,8.20
2023-04-11T01:55:23.525Z,8.23
2023-04-11T01:56:56.079Z,8.25
2023-04-11T02:00:22.495Z,8.30
2023-04-11T02:01:55.186Z,8.31
2023-04-11T02:03:07.679Z,8.33
2023-04-11T02:04:40.564Z,8.35
2023-04-11T02:06:13.137Z,8.37
2023-04-11T02:07:45.764Z,8.39
2023-04-11T02:09:10.834Z,8.42
2023-04-11T02:10:43.424Z,8.44
2023-04-11T02:12:15.065Z,8.46
2023-04-11T02:13:47.647Z,8.46
2023-04-11T02:14:59.746Z,8.48
2023-04-11T02:16:25.560Z,8.49
2023-04-11T02:20:49.781Z,8.56
2023-04-11T02:22:28.050Z,8.57
2023-04-11T02:24:01.055Z,8.59
2023-04-11T02:42:02.408Z,8.30
2023-04-11T02:43:25.772Z,8.29
2023-04-11T02:44:58.390Z,8.29
2023-04-11T02:46:30.907Z,8.29
2023-04-11T02:47:43.322Z,8.29
2023-04-11T02:49:15.790Z,8.30
2023-04-11T02:50:41.503Z,8.30
2023-04-11T02:52:11.496Z,8.32
2023-04-11T02:53:26.648Z,8.33
2023-04-11T02:54:48.156Z,8.34
2023-04-11T02:56:20.840Z,8.35
2023-04-11T02:57:33.275Z,8.37
2023-04-11T03:18:47.684Z,8.42
2023-04-11T03:20:01.467Z,8.40
2023-04-11T03:20:59.482Z,8.37
2023-04-11T03:22:04.382Z,8.35
2023-04-11T03:23:18.715Z,8.32
2023-04-11T03:24:39.903Z,8.30
2023-04-11T03:26:03.125Z,8.27
2023-04-11T03:27:35.673Z,8.26
2023-04-11T03:28:58.539Z,8.24
2023-04-11T03:30:31.448Z,8.21
2023-04-11T03:32:03.821Z,8.18
2023-04-11T03:33:36.930Z,8.12
2023-04-11T03:34:40.711Z,8.07
2023-04-11T03:36:02.137Z,8.04
2023-04-11T03:36:58.226Z,8.00
2023-04-11T03:38:20.969Z,7.98
2023-04-11T03:39:37.031Z,7.97
2023-04-11T03:41:09.804Z,7.97
2023-04-11T03:42:42.402Z,7.95
2023-04-11T03:44:16.433Z,7.96
2023-04-11T03:45:29.256Z,7.95
2023-04-11T03:47:02.039Z,7.96
2023-04-11T03:48:08.993Z,7.96
2023-04-11T03:54:02.693Z,7.97
2023-04-11T03:55:39.717Z,7.98
2023-04-11T03:56:44.695Z,7.99
2023-04-11T03:58:44.680Z,7.99
2023-04-11T04:00:17.295Z,7.98
2023-04-11T04:01:49.907Z,7.97
2023-04-11T04:03:22.452Z,7.98
2023-04-11T04:04:34.996Z,7.98
2023-04-11T04:06:07.886Z,8.00
2023-04-11T04:07:32.552Z,7.99
2023-04-11T04:09:06.245Z,8.00
2023-04-11T04:10:13.316Z,7.98
2023-04-11T04:11:46.294Z,7.98
2023-04-11T04:13:19.248Z,7.96
2023-04-11T04:14:50.660Z,7.96
2023-04-11T04:16:04.340Z,7.95
2023-04-11T04:17:18.363Z,7.95
2023-04-11T04:21:17.745Z,7.95
2023-04-11T04:31:18.820Z,7.93
2023-04-11T04:32:51.934Z,7.92
2023-04-11T04:34:24.599Z,7.91
2023-04-11T04:35:49.318Z,7.89
2023-04-11T04:37:14.556Z,7.88
2023-04-11T04:38:32.232Z,7.86
2023-04-11T04:40:04.769Z,7.85
2023-04-11T04:41:37.315Z,7.83
2023-04-11T04:43:09.859Z,7.82
2023-04-11T04:44:42.343Z,7.82
2023-04-11T04:46:14.778Z,7.82
2023-04-11T04:47:47.503Z,7.81
2023-04-11T04:49:12.873Z,7.82
2023-04-11T04:50:27.157Z,7.82
2023-04-11T04:51:59.603Z,7.82
2023-04-11T04:53:24.913Z,7.81
2023-04-11T04:54:57.376Z,7.80
2023-04-11T04:56:29.783Z,7.78
2023-04-11T04:58:02.197Z,7.78
2023-04-11T04:59:17.753Z,7.79
2023-04-11T05:00:43.087Z,7.80
2023-04-11T05:02:15.746Z,7.81
2023-04-11T05:03:30.287Z,7.82
2023-04-11T05:05:02.698Z,7.85
2023-04-11T05:06:28.349Z,7.86
2023-04-11T05:08:00.862Z,7.86
2023-04-11T05:09:24.691Z,7.86
2023-04-11T05:10:58.334Z,7.87
2023-04-11T05:12:32.725Z,7.90
2023-04-11T05:14:06.968Z,7.92
2023-04-11T05:15:33.129Z,7.96
2023-04-11T05:17:07.132Z,7.98
2023-04-11T05:18:19.854Z,8.02
2023-04-11T05:19:45.185Z,8.04
2023-04-11T05:21:10.542Z,8.06
2023-04-11T05:22:36.102Z,8.10
2023-04-11T05:23:30.087Z,8.11
2023-04-11T05:24:45.519Z,8.13
2023-04-11T05:25:59.581Z,8.13
2023-04-11T05:27:25.995Z,8.14
2023-04-11T05:28:58.512Z,8.16
2023-04-11T05:30:31.132Z,8.17
2023-04-11T05:31:54.504Z,8.19
2023-04-11T05:33:02.032Z,8.19
2023-04-11T05:34:34.591Z,8.21
2023-04-11T05:36:07.254Z,8.21
2023-04-11T05:37:19.557Z,8.23
2023-04-11T05:38:51.128Z,8.23
2023-04-11T05:40:24.086Z,8.23
2023-04-11T05:41:56.651Z,8.24
2023-04-11T05:43:17.123Z,8.23
2023-04-11T05:44:50.612Z,8.22
2023-04-11T05:46:13.557Z,8.20
2023-04-11T05:47:46.871Z,8.19
2023-04-11T05:49:19.362Z,8.15
2023-04-11T05:50:42.888Z,8.11
2023-04-11T05:52:11.641Z,8.08
2023-04-11T05:53:37.039Z,8.04
2023-04-11T05:55:12.225Z,8.01
2023-04-11T05:56:18.714Z,7.98
2023-04-11T05:57:52.359Z,7.98
2023-04-11T05:59:08.675Z,7.98
2023-04-11T06:00:40.120Z,8.00
2023-04-11T06:02:13.955Z,8.02
2023-04-11T06:03:48.136Z,8.05
2023-04-11T06:05:13.925Z,8.07
2023-04-11T06:15:54.827Z,8.03
2023-04-11T06:17:27.909Z,8.01
2023-04-11T06:19:01.032Z,8.01
2023-04-11T06:20:33.693Z,8.01
2023-04-11T06:22:06.337Z,8.03
2023-04-11T06:23:18.811Z,8.05
2023-04-11T06:24:51.430Z,8.08
2023-04-11T06:26:24.452Z,8.10
2023-04-11T06:27:57.337Z,8.13
2023-04-11T06:29:29.549Z,8.15
2023-04-11T06:31:03.815Z,8.15
2023-04-11T06:32:32.688Z,8.17
2023-04-11T06:47:08.474Z,8.22
2023-04-11T06:48:41.193Z,8.26
2023-04-11T06:50:06.528Z,8.32
2023-04-11T06:51:28.156Z,8.35
2023-04-11T06:53:00.904Z,8.39
2023-04-11T06:54:26.446Z,8.43
2023-04-11T06:55:59.055Z,8.47
2023-04-11T06:57:21.759Z,8.50
2023-04-11T06:58:54.839Z,8.52
2023-04-11T07:00:29.553Z,8.56
2023-04-11T07:02:02.583Z,8.60
2023-04-11T07:03:29.665Z,8.63
2023-04-11T07:06:57.318Z,8.74
2023-04-11T07:08:29.847Z,8.77
2023-04-11T07:10:02.260Z,8.82
2023-04-11T07:11:34.814Z,8.86
2023-04-11T07:13:07.694Z,8.90
2023-04-11T07:14:19.818Z,8.93
2023-04-11T07:15:52.740Z,8.94
2023-04-11T07:17:05.210Z,8.99
2023-04-11T07:26:37.789Z,9.29
2023-04-11T07:28:10.304Z,9.31
2023-04-11T07:29:24.895Z,9.33
2023-04-11T07:30:50.476Z,9.34
2023-04-11T07:32:23.174Z,9.37
2023-04-11T07:33:55.913Z,9.39
2023-04-11T07:35:17.598Z,9.41
2023-04-11T07:56:07.518Z,9.64
2023-04-11T07:59:04.729Z,9.55
2023-04-11T08:00:26.579Z,9.50
2023-04-11T08:01:38.924Z,9.48
2023-04-11T08:03:12.706Z,9.45
2023-04-11T08:06:16.954Z,9.44
2023-04-11T08:07:50.909Z,9.44
2023-04-11T08:09:12.161Z,9.45
2023-04-11T08:10:45.256Z,9.43
2023-04-11T08:12:19.725Z,9.42
2023-04-11T08:15:23.031Z,9.47
2023-04-11T08:16:46.011Z,9.48
2023-04-11T08:18:14.980Z,9.48
2023-04-11T08:19:47.066Z,9.47
2023-04-11T08:23:52.291Z,9.40
2023-04-11T08:26:37.478Z,9.38
2023-04-11T08:29:41.281Z,9.36
2023-04-11T08:31:15.236Z,9.38
2023-04-11T08:32:48.151Z,9.39
2023-04-11T08:34:21.729Z,9.41
2023-04-11T08:43:09.451Z,9.42
2023-04-11T08:44:43.154Z,9.43
2023-04-11T08:46:15.946Z,9.45
2023-04-11T08:47:48.791Z,9.49
2023-04-11T08:49:01.010Z,9.53
2023-04-11T08:50:02.080Z,9.54
2023-04-11T08:51:19.542Z,9.56
2023-04-11T08:52:52.019Z,9.58
2023-04-11T08:54:25.091Z,9.58
2023-04-11T08:55:50.458Z,9.59
2023-04-11T08:57:22.990Z,9.58
2023-04-11T08:58:54.751Z,9.58
2023-04-11T09:00:12.880Z,9.58
2023-04-11T09:01:53.896Z,9.57
2023-04-11T09:03:38.694Z,9.58
2023-04-11T09:05:11.462Z,9.61
2023-04-11T09:06:44.182Z,9.64
2023-04-11T09:58:37.190Z,11.73
2023-04-11T10:00:10.419Z,11.77
2023-04-11T10:01:43.779Z,11.79
2023-04-11T10:03:16.888Z,11.79
2023-04-11T10:04:49.696Z,11.79
2023-04-11T10:06:28.017Z,11.80
2023-04-11T10:08:03.990Z,11.80
2023-04-11T10:09:36.797Z,11.84
2023-04-11T10:11:11.220Z,11.88
2023-04-11T10:12:28.786Z,11.94
2023-04-11T10:13:59.205Z,11.95
2023-04-11T10:15:38.997Z,11.96
2023-04-11T10:17:11.576Z,11.96
2023-04-11T10:18:50.009Z,11.98
2023-04-11T10:20:23.817Z,12.01
2023-04-11T10:22:12.418Z,12.04
2023-04-11T10:23:52.314Z,12.09
2023-04-11T10:25:20.186Z,12.15
2023-04-11T10:30:10.876Z,12.26
2023-04-11T10:31:44.505Z,12.35
2023-04-11T10:35:01.697Z,12.54
2023-04-11T10:36:47.807Z,12.67
2023-04-11T10:41:29.216Z,12.89
2023-04-11T10:43:07.736Z,12.91
2023-04-11T10:44:48.557Z,12.93
2023-04-11T10:46:15.494Z,12.95
2023-04-11T10:47:58.237Z,12.93
2023-04-11T10:49:37.061Z,12.94
2023-04-11T10:51:29.379Z,12.96
2023-04-11T10:53:10.253Z,13.00
2023-04-11T10:59:21.808Z,13.21
2023-04-11T11:00:58.610Z,13.25
2023-04-11T11:02:35.276Z,13.30
2023-04-11T11:04:09.553Z,13.34
2023-04-11T11:05:44.209Z,13.36
2023-04-11T11:16:45.152Z,13.49
2023-04-11T11:18:17.949Z,13.49
2023-04-11T11:19:53.442Z,13.52
2023-04-11T11:21:28.357Z,13.53
2023-04-11T11:23:01.376Z,13.55
2023-04-11T11:24:24.320Z,13.60
2023-04-11T11:25:57.199Z,13.65
2023-04-11T11:27:18.377Z,13.71
2023-04-11T11:28:51.162Z,13.73
2023-04-11T11:30:36.247Z,13.79
2023-04-11T11:37:11.376Z,13.96
2023-04-11T11:38:44.181Z,13.94
2023-04-11T11:40:16.812Z,13.94
2023-04-11T11:41:49.514Z,13.97
2023-04-11T11:43:22.863Z,14.01
2023-04-11T11:44:35.486Z,14.04
2023-04-11T11:46:20.009Z,14.06
2023-04-11T11:50:04.525Z,14.09
2023-04-11T11:51:37.177Z,14.09
2023-04-11T11:53:15.326Z,14.13
2023-04-11T11:54:49.004Z,14.17
2023-04-11T11:56:21.408Z,14.23
2023-04-11T11:57:52.574Z,14.28
2023-04-11T11:59:26.007Z,14.33
2023-04-11T12:01:05.656Z,14.35
2023-04-11T12:04:10.591Z,14.42
2023-04-11T12:09:50.692Z,14.65
2023-04-11T12:12:55.128Z,14.72
2023-04-11T12:14:29.106Z,14.75
2023-04-11T12:15:51.832Z,14.77
2023-04-11T12:27:24.457Z,14.98
2023-04-11T12:30:29.992Z,15.03
2023-04-11T12:31:56.619Z,15.04
2023-04-11T12:47:34.017Z,15.44
2023-04-11T12:49:06.767Z,15.46
2023-04-11T12:50:39.454Z,15.50
2023-04-11T12:52:12.016Z,15.52
2023-04-11T12:53:25.160Z,15.55
2023-04-11T12:54:58.048Z,15.57
2023-04-11T12:56:10.661Z,15.60
2023-04-11T13:09:26.662Z,15.72
2023-04-11T13:11:00.677Z,15.68
2023-04-11T13:12:34.938Z,15.59
2023-04-11T13:15:48.627Z,15.39
2023-04-11T13:17:22.661Z,15.33
2023-04-11T13:18:50.360Z,15.26
2023-04-11T13:20:24.431Z,15.20
2023-04-11T13:44:15.616Z,15.03
2023-04-11T13:45:48.505Z,15.01
2023-04-11T13:47:00.927Z,15.01
2023-04-11T13:48:33.489Z,15.00
2023-04-11T13:49:58.631Z,15.00
2023-04-11T13:51:31.453Z,14.99
2023-04-11T13:53:04.594Z,14.98
2023-04-11T14:08:30.999Z,14.96
2023-04-11T14:09:36.451Z,14.96
2023-04-11T14:11:09.257Z,14.98
2023-04-11T14:12:34.397Z,14.99
2023-04-11T14:14:06.968Z,14.99
2023-04-11T14:15:28.728Z,15.01
2023-04-11T14:16:46.934Z,15.01
2023-04-11T14:18:20.006Z,15.02
2023-04-11T14:19:32.203Z,15.00
2023-04-11T14:21:04.606Z,15.01
2023-04-11T14:22:37.269Z,15.01
2023-04-11T14:24:10.044Z,14.99
2023-04-11T14:25:42.275Z,14.97
2023-04-11T14:27:16.836Z,14.94
2023-04-11T14:28:49.806Z,14.93
2023-04-11T14:30:02.042Z,14.93
2023-04-11T14:31:27.950Z,14.93
2023-04-11T14:35:02.464Z,14.96
2023-04-11T14:36:35.384Z,14.95
2023-04-11T14:38:08.144Z,14.96
2023-04-11T14:39:40.986Z,14.96
2023-04-11T14:40:45.862Z,14.97
2023-04-11T14:42:18.490Z,15.00
2023-04-11T14:43:51.457Z,15.00
2023-04-11T14:51:38.340Z,14.99
2023-04-11T14:53:11.288Z,14.99
2023-04-11T14:54:34.354Z,15.00
2023-04-11T14:56:09.858Z,15.00
2023-04-11T14:57:44.895Z,15.00
2023-04-11T14:59:19.080Z,15.00
2023-04-11T15:12:54.629Z,14.90
2023-04-11T15:14:15.963Z,14.88
2023-04-11T15:15:48.833Z,14.86
2023-04-11T15:17:01.000Z,14.85
2023-04-11T15:18:33.551Z,14.85
2023-04-11T15:20:06.032Z,14.82
2023-04-11T15:21:39.863Z,14.80
2023-04-11T15:23:13.758Z,14.77
2023-04-11T15:32:02.243Z,14.47
2023-04-11T15:33:36.189Z,14.41
2023-04-11T15:34:55.656Z,14.35
2023-04-11T15:36:12.181Z,14.28
2023-04-11T15:37:39.038Z,14.22
2023-04-11T15:38:48.453Z,14.15
2023-04-11T15:40:22.503Z,14.10
2023-04-11T15:41:49.379Z,14.03
2023-04-11T15:43:16.239Z,13.98
2023-04-11T15:52:29.120Z,13.65
2023-04-11T15:53:43.472Z,13.61
2023-04-11T15:55:08.740Z,13.57
2023-04-11T15:56:46.135Z,13.53
2023-04-11T15:58:01.864Z,13.49
2023-04-11T16:16:29.821Z,13.55
2023-04-11T16:44:47.850Z,13.28
2023-04-11T16:46:12.462Z,13.26
2023-04-11T16:47:47.647Z,13.24
2023-04-11T16:49:25.170Z,13.22
2023-04-11T16:56:16.032Z,13.12
2023-04-11T16:57:38.804Z,13.10
2023-04-11T16:59:02.051Z,13.08
2023-04-11T17:00:35.974Z,13.05
2023-04-11T17:02:11.236Z,13.03
2023-04-11T17:03:45.898Z,13.00
2023-04-11T17:05:20.607Z,12.97
2023-04-11T17:06:43.325Z,12.94
2023-04-11T17:07:56.918Z,12.92
2023-04-11T17:09:32.331Z,12.90
2023-04-11T17:10:59.604Z,12.85
2023-04-11T17:12:33.542Z,12.84
2023-04-11T17:14:01.196Z,12.81
2023-04-11T17:15:21.531Z,12.77
2023-04-11T17:16:56.720Z,12.75
2023-04-11T17:18:12.351Z,12.73
2023-04-11T17:19:26.298Z,12.71
2023-04-11T17:20:53.206Z,12.68
2023-04-11T17:22:28.365Z,12.65
2023-04-11T17:23:55.748Z,12.63
2023-04-11T17:25:18.768Z,12.60
2023-04-11T17:26:45.877Z,12.57
2023-04-11T17:28:12.802Z,12.54
2023-04-11T17:47:19.150Z,12.29
2023-04-11T17:48:53.090Z,12.28
2023-04-11T17:50:19.769Z,12.25
2023-04-11T17:51:58.886Z,12.24
2023-04-11T17:53:34.127Z,12.22
2023-04-11T17:54:51.342Z,12.19
2023-04-11T17:56:28.433Z,12.18
2023-04-11T17:57:51.199Z,12.16
2023-04-11T17:59:25.228Z,12.14
2023-04-11T18:00:59.566Z,12.11
2023-04-11T18:02:23.448Z,12.09
2023-04-11T18:03:41.499Z,12.08
2023-04-11T18:08:07.185Z,12.05
2023-04-11T18:09:22.781Z,12.03
2023-04-11T18:35:27.703Z,11.65
2023-04-11T18:36:56.200Z,11.64
2023-04-11T18:38:13.007Z,11.63
2023-04-11T18:39:48.365Z,11.61
2023-04-11T18:41:12.794Z,11.58
2023-04-11T18:42:48.258Z,11.56
2023-04-11T18:44:21.766Z,11.55
2023-04-11T18:45:56.471Z,11.52
2023-04-11T18:47:31.626Z,11.49
2023-04-11T18:49:07.937Z,11.46
2023-04-11T18:50:42.413Z,11.43
2023-04-11T18:52:16.702Z,11.42
2023-04-11T18:53:33.200Z,11.38
2023-04-11T18:55:07.992Z,11.36
2023-04-11T18:56:45.112Z,11.32
2023-04-11T18:58:25.510Z,11.30
2023-04-11T18:59:36.774Z,11.25
2023-04-11T19:01:14.165Z,11.22
2023-04-11T19:02:50.373Z,11.18
2023-04-11T19:04:19.323Z,11.14
2023-04-11T19:05:47.005Z,11.11
2023-04-11T19:07:07.486Z,11.08
2023-04-11T19:08:44.974Z,11.05
2023-04-11T19:10:20.022Z,11.02
2023-04-11T19:11:54.272Z,10.99
2023-04-11T19:13:28.780Z,10.97
2023-04-11T19:15:03.092Z,10.94
2023-04-11T19:16:28.437Z,10.91
2023-04-11T19:21:49.298Z,10.76
2023-04-11T20:06:21.387Z,9.74
2023-04-11T20:07:55.360Z,9.71
2023-04-11T20:09:22.176Z,9.68
2023-04-11T20:10:45.186Z,9.64
2023-04-11T20:12:19.876Z,9.61
2023-04-11T20:13:48.621Z,9.58
2023-04-11T20:40:40.574Z,9.24
2023-04-11T20:42:14.777Z,9.23
2023-04-11T20:43:49.868Z,9.22
2023-04-11T20:45:24.086Z,9.21
2023-04-11T20:54:56.318Z,9.10
2023-04-11T20:56:29.224Z,9.08
2023-04-11T20:57:41.553Z,9.06
2023-04-11T20:59:14.157Z,9.05
2023-04-11T21:00:46.914Z,9.05
2023-04-11T21:02:19.761Z,9.05
2023-04-11T21:03:50.354Z,9.04
2023-04-11T21:11:49.635Z,9.04
2023-04-11T21:13:22.351Z,9.03
2023-04-11T21:14:55.053Z,9.02
2023-04-11T21:16:27.742Z,9.02
2023-04-11T21:18:01.438Z,9.01
2023-04-11T21:19:28.813Z,8.99
2023-04-11T21:21:01.421Z,8.98
2023-04-11T21:22:34.164Z,8.97
2023-04-11T21:23:59.285Z,8.95
2023-04-11T21:25:26.907Z,8.94
2023-04-11T21:27:01.205Z,8.92
2023-04-11T21:28:34.411Z,8.89
2023-04-11T21:29:47.193Z,8.88
2023-04-11T21:33:04.453Z,8.86
2023-04-11T21:34:37.184Z,8.85
2023-04-11T21:36:09.888Z,8.84
2023-04-11T21:37:43.635Z,8.84
2023-04-11T21:38:55.924Z,8.84
2023-04-11T21:40:28.610Z,8.84
2023-04-11T21:42:02.285Z,8.83
2023-04-11T21:43:36.827Z,8.84
2023-04-11T21:45:11.120Z,8.85
2023-04-11T21:46:38.106Z,8.85
2023-04-11T21:54:24.505Z,8.84
2023-04-11T21:55:58.052Z,8.82
2023-04-11T21:57:24.615Z,8.81
2023-04-11T21:58:57.275Z,8.81
2023-04-11T22:00:17.964Z,8.80
2023-04-11T22:01:50.626Z,8.80
2023-04-11T22:03:16.515Z,8.79
2023-04-11T22:04:29.306Z,8.79
2023-04-11T22:05:59.407Z,8.79
2023-04-11T22:07:24.828Z,8.77
2023-04-11T22:08:49.268Z,8.78
2023-04-11T22:10:11.265Z,8.78
2023-04-11T22:11:37.722Z,8.76
2023-04-11T22:13:00.226Z,8.77
2023-04-11T22:14:12.361Z,8.77
2023-04-11T22:15:43.826Z,8.77
2023-04-11T22:17:17.753Z,8.78
2023-04-11T22:18:30.011Z,8.78
2023-04-11T22:19:22.716Z,8.78
2023-04-11T22:20:45.737Z,8.77
2023-04-11T22:22:18.339Z,8.77
2023-04-11T22:23:40.886Z,8.77
2023-04-11T22:24:53.107Z,8.78
2023-04-11T22:26:25.767Z,8.78
2023-04-11T22:27:58.253Z,8.78
2023-04-11T22:29:10.553Z,8.78
2023-04-11T22:30:43.123Z,8.78
2023-04-11T22:32:15.874Z,8.79
2023-04-11T22:33:48.496Z,8.79
2023-04-11T22:35:11.575Z,8.80
2023-04-11T22:37:59.691Z,8.79
2023-04-11T22:39:12.478Z,8.78
2023-04-11T22:40:45.397Z,8.77
2023-04-11T22:42:01.082Z,8.74
2023-04-11T22:43:26.291Z,8.72
2023-04-11T22:44:58.884Z,8.69
2023-04-11T22:46:31.419Z,8.65
2023-04-11T22:48:06.553Z,8.60
2023-04-11T22:49:37.717Z,8.57
2023-04-11T22:51:02.254Z,8.56
2023-04-11T22:52:34.924Z,8.55
2023-04-11T22:53:58.840Z,8.55
2023-04-11T22:55:31.757Z,8.56
2023-04-11T22:56:54.271Z,8.57
2023-04-11T22:58:06.457Z,8.58
2023-04-11T22:59:38.954Z,8.59
2023-04-11T23:00:54.607Z,8.60
2023-04-11T23:02:12.369Z,8.62
2023-04-11T23:03:44.965Z,8.63
2023-04-11T23:05:06.616Z,8.63
2023-04-11T23:06:39.141Z,8.63
2023-04-11T23:08:03.555Z,8.64
2023-04-11T23:09:37.459Z,8.65
2023-04-11T23:28:16.712Z,8.73
2023-04-11T23:29:30.861Z,8.73
2023-04-11T23:31:04.968Z,8.74
2023-04-11T23:32:38.921Z,8.73
2023-04-11T23:34:14.313Z,8.73
2023-04-11T23:35:48.643Z,8.74
2023-04-11T23:37:15.216Z,8.75
2023-04-11T23:38:08.684Z,8.76
2023-04-11T23:39:42.665Z,8.75
2023-04-11T23:41:16.590Z,8.76
2023-04-11T23:42:51.909Z,8.75
2023-04-11T23:44:25.859Z,8.75
2023-04-11T23:59:23.257Z,8.65
